Time;durP1;ratioP1;P1;durP2;ratioP2;P2;SDS_P1;SDS_P2;PMS_P1;PMS_P2;Temp;Humidity;BMP_temperature;BMP_pressure;BME280_temperature;BME280_humidity;BME280_pressure;Samples;Min_cycle;Max_cycle;Signal;HPM_P1;HPM_P2
2024/02/25 00:01:51;;;;;;;1.90;1.60;;;;;;;;;;5022654;28;20181;-55
2024/02/25 00:04:18;;;;;;;0.90;0.90;;;;;;;;;;5022833;28;20239;-54
2024/02/25 00:06:45;;;;;;;2.43;1.20;;;;;;;;;;5026168;28;20174;-55
2024/02/25 00:09:14;;;;;;;2.33;1.03;;;;;;;;;;5021529;28;20170;-54
2024/02/25 00:11:42;;;;;;;1.80;1.23;;;;;;;;;;5024019;28;20181;-54
2024/02/25 00:14:08;;;;;;;3.10;1.30;;;;;;;;;;5028015;28;20193;-55
2024/02/25 00:16:35;;;;;;;1.80;1.10;;;;;;;;;;5016551;28;20236;-55
2024/02/25 00:19:01;;;;;;;2.27;1.00;;;;;;;;;;5022767;28;20221;-54
2024/02/25 00:21:28;;;;;;;4.00;1.20;;;;;;;;;;5025245;28;20554;-53
2024/02/25 00:23:54;;;;;;;2.73;1.17;;;;;;;;;;5028173;28;20214;-54
2024/02/25 00:26:20;;;;;;;1.20;1.10;;;;;;;;;;5022523;28;20186;-55
2024/02/25 00:28:46;;;;;;;2.00;1.00;;;;;;;;;;5015858;28;20360;-57
2024/02/25 00:31:12;;;;;;;1.30;0.90;;;;;;;;;;5017307;28;20677;-54
2024/02/25 00:33:38;;;;;;;1.10;0.97;;;;;;;;;;5020566;28;20253;-54
2024/02/25 00:36:04;;;;;;;1.70;1.10;;;;;;;;;;5018094;28;20182;-54
2024/02/25 00:38:30;;;;;;;1.10;0.97;;;;;;;;;;5025224;28;20194;-54
2024/02/25 00:40:56;;;;;;;1.30;1.07;;;;;;;;;;5021517;28;20186;-55
2024/02/25 00:43:22;;;;;;;1.90;1.10;;;;;;;;;;5026608;28;20681;-53
2024/02/25 00:45:48;;;;;;;1.50;1.07;;;;;;;;;;5024992;28;20352;-54
2024/02/25 00:48:15;;;;;;;2.60;1.20;;;;;;;;;;5024962;28;20283;-54
2024/02/25 00:50:41;;;;;;;1.37;1.00;;;;;;;;;;5021871;28;20265;-56
2024/02/25 00:53:07;;;;;;;1.40;0.90;;;;;;;;;;5025446;28;20620;-56
2024/02/25 00:55:33;;;;;;;1.87;1.10;;;;;;;;;;5021297;28;20218;-56
2024/02/25 00:57:59;;;;;;;2.80;0.90;;;;;;;;;;5027342;28;20654;-55
2024/02/25 01:00:25;;;;;;;1.13;1.00;;;;;;;;;;5017568;28;20174;-56
2024/02/25 01:02:51;;;;;;;1.47;1.10;;;;;;;;;;5025521;28;20658;-57
2024/02/25 01:05:17;;;;;;;1.90;0.97;;;;;;;;;;5018637;28;20333;-57
2024/02/25 01:07:46;;;;;;;1.43;0.97;;;;;;;;;;5028331;28;20264;-57
2024/02/25 01:10:12;;;;;;;1.10;1.00;;;;;;;;;;5025691;28;20186;-56
2024/02/25 01:12:38;;;;;;;1.60;1.20;;;;;;;;;;5019533;28;20257;-56
2024/02/25 01:15:04;;;;;;;2.93;0.90;;;;;;;;;;5019753;28;20175;-56
2024/02/25 01:17:30;;;;;;;2.13;0.93;;;;;;;;;;5018591;28;20182;-56
2024/02/25 01:19:56;;;;;;;1.60;0.97;;;;;;;;;;5024996;28;20228;-56
2024/02/25 01:22:22;;;;;;;1.03;0.80;;;;;;;;;;5015325;28;20190;-56
2024/02/25 01:24:48;;;;;;;2.70;1.07;;;;;;;;;;5024670;28;20584;-56
2024/02/25 01:27:15;;;;;;;1.00;0.90;;;;;;;;;;5013563;28;20170;-56
2024/02/25 01:29:41;;;;;;;1.57;1.10;;;;;;;;;;5021602;28;20178;-56
2024/02/25 01:32:07;;;;;;;1.43;1.10;;;;;;;;;;5026522;28;20606;-55
2024/02/25 01:34:33;;;;;;;0.90;0.90;;;;;;;;;;5019073;28;20537;-56
2024/02/25 01:36:59;;;;;;;1.40;1.30;;;;;;;;;;5020442;28;20185;-56
2024/02/25 01:39:25;;;;;;;1.90;1.30;;;;;;;;;;5021995;28;20618;-56
2024/02/25 01:41:53;;;;;;;1.80;1.10;;;;;;;;;;5018592;28;20169;-56
2024/02/25 01:44:19;;;;;;;1.83;1.30;;;;;;;;;;5025725;28;20221;-56
2024/02/25 01:46:45;;;;;;;1.83;1.10;;;;;;;;;;5017307;28;20474;-56
2024/02/25 01:49:18;;;;;;;1.20;1.10;;;;;;;;;;5024095;28;20243;-56
2024/02/25 01:51:44;;;;;;;1.20;1.10;;;;;;;;;;5018010;28;20659;-55
2024/02/25 01:54:11;;;;;;;2.10;1.13;;;;;;;;;;5023054;28;20171;-56
2024/02/25 01:56:38;;;;;;;1.60;1.07;;;;;;;;;;5025186;28;20308;-56
2024/02/25 01:59:05;;;;;;;1.10;1.00;;;;;;;;;;5019675;28;20182;-56
2024/02/25 02:01:35;;;;;;;0.90;0.90;;;;;;;;;;5023268;28;20177;-56
2024/02/25 02:04:01;;;;;;;2.33;1.17;;;;;;;;;;5025651;28;20206;-56
2024/02/25 02:06:27;;;;;;;1.60;1.20;;;;;;;;;;5022708;28;20179;-57
2024/02/25 02:08:53;;;;;;;1.40;1.30;;;;;;;;;;5021463;28;20294;-57
2024/02/25 02:11:20;;;;;;;2.17;1.00;;;;;;;;;;5019258;28;20332;-56
2024/02/25 02:13:47;;;;;;;1.80;1.00;;;;;;;;;;5019791;28;20578;-57
2024/02/25 02:16:15;;;;;;;1.43;1.20;;;;;;;;;;5025044;28;20233;-57
2024/02/25 02:18:41;;;;;;;2.57;1.13;;;;;;;;;;5022864;28;20243;-56
2024/02/25 02:21:11;;;;;;;1.23;1.10;;;;;;;;;;5024075;28;20655;-56
2024/02/25 02:23:38;;;;;;;1.10;1.10;;;;;;;;;;5025526;28;20219;-56
2024/02/25 02:26:04;;;;;;;1.20;1.10;;;;;;;;;;5022789;28;20256;-57
2024/02/25 02:28:30;;;;;;;1.23;0.97;;;;;;;;;;5027252;28;20170;-56
2024/02/25 02:30:56;;;;;;;1.20;1.10;;;;;;;;;;5022960;28;20192;-56
2024/02/25 02:33:22;;;;;;;2.80;1.10;;;;;;;;;;5023434;28;20193;-56
2024/02/25 02:35:49;;;;;;;1.53;1.03;;;;;;;;;;5027044;28;20163;-57
2024/02/25 02:38:15;;;;;;;1.20;0.90;;;;;;;;;;5023641;28;20189;-57
2024/02/25 02:40:44;;;;;;;1.73;1.10;;;;;;;;;;5017844;28;20182;-57
2024/02/25 02:43:10;;;;;;;3.17;1.33;;;;;;;;;;5027039;28;20276;-56
2024/02/25 02:45:36;;;;;;;1.37;1.17;;;;;;;;;;5022835;28;20281;-57
2024/02/25 02:48:09;;;;;;;1.40;1.03;;;;;;;;;;5019637;28;20610;-57
2024/02/25 02:50:35;;;;;;;1.27;0.90;;;;;;;;;;5020998;28;20182;-58
2024/02/25 02:53:01;;;;;;;1.33;0.97;;;;;;;;;;5017958;28;20177;-57
2024/02/25 02:55:27;;;;;;;1.33;1.23;;;;;;;;;;5020484;28;20193;-56
2024/02/25 02:57:53;;;;;;;1.60;1.03;;;;;;;;;;5021726;28;20176;-55
2024/02/25 03:00:19;;;;;;;1.40;1.30;;;;;;;;;;5018928;28;20268;-56
2024/02/25 03:02:45;;;;;;;2.00;1.30;;;;;;;;;;5026848;28;20189;-56
2024/02/25 03:05:11;;;;;;;1.30;1.20;;;;;;;;;;5026425;28;20319;-56
2024/02/25 03:07:37;;;;;;;0.87;0.87;;;;;;;;;;5024394;28;20190;-56
2024/02/25 03:10:04;;;;;;;0.80;0.80;;;;;;;;;;5021959;28;20649;-54
2024/02/25 03:12:30;;;;;;;2.27;1.20;;;;;;;;;;5026349;28;20529;-57
2024/02/25 03:14:56;;;;;;;1.20;1.03;;;;;;;;;;5017358;28;20174;-56
2024/02/25 03:17:22;;;;;;;3.80;1.20;;;;;;;;;;5020189;28;20652;-57
2024/02/25 03:19:48;;;;;;;1.13;1.00;;;;;;;;;;5022923;28;20218;-57
2024/02/25 03:22:15;;;;;;;1.07;0.97;;;;;;;;;;5023348;28;20264;-58
2024/02/25 03:24:41;;;;;;;1.20;1.00;;;;;;;;;;5024462;28;20456;-57
2024/02/25 03:27:07;;;;;;;1.07;0.87;;;;;;;;;;5028358;28;20174;-58
2024/02/25 03:29:33;;;;;;;0.83;0.83;;;;;;;;;;5028512;28;20549;-58
2024/02/25 03:31:58;;;;;;;1.87;1.20;;;;;;;;;;5021321;28;20199;-58
2024/02/25 03:34:24;;;;;;;1.37;0.93;;;;;;;;;;5023271;28;20194;-59
2024/02/25 03:36:50;;;;;;;0.80;0.80;;;;;;;;;;5019206;28;20226;-58
2024/02/25 03:39:16;;;;;;;1.33;1.00;;;;;;;;;;5028960;28;20299;-58
2024/02/25 03:41:43;;;;;;;1.07;1.07;;;;;;;;;;5021250;28;20709;-58
2024/02/25 03:44:09;;;;;;;0.80;0.80;;;;;;;;;;5029146;28;20236;-58
2024/02/25 03:46:35;;;;;;;0.60;0.60;;;;;;;;;;5023876;28;20233;-57
2024/02/25 03:49:01;;;;;;;0.80;0.80;;;;;;;;;;5025488;28;20190;-57
2024/02/25 03:51:27;;;;;;;0.77;0.77;;;;;;;;;;5026329;28;21573;-57
2024/02/25 03:53:53;;;;;;;1.00;0.93;;;;;;;;;;5023271;28;20206;-58
2024/02/25 03:56:19;;;;;;;0.70;0.70;;;;;;;;;;5020355;28;20565;-58
2024/02/25 03:58:45;;;;;;;0.63;0.63;;;;;;;;;;5019594;28;20175;-58
2024/02/25 04:01:11;;;;;;;0.77;0.77;;;;;;;;;;5021296;28;20174;-59
2024/02/25 04:03:37;;;;;;;0.70;0.70;;;;;;;;;;5028980;28;20324;-57
2024/02/25 04:06:03;;;;;;;1.03;1.00;;;;;;;;;;5024285;28;20282;-57
2024/02/25 04:08:29;;;;;;;0.50;0.50;;;;;;;;;;5027787;28;20181;-58
2024/02/25 04:10:55;;;;;;;0.90;0.90;;;;;;;;;;5021939;28;20181;-56
2024/02/25 04:13:21;;;;;;;0.60;0.53;;;;;;;;;;5017873;28;20603;-57
2024/02/25 04:15:47;;;;;;;2.40;0.80;;;;;;;;;;5022154;28;20170;-58
2024/02/25 04:18:13;;;;;;;0.83;0.83;;;;;;;;;;5025463;28;20622;-57
2024/02/25 04:20:39;;;;;;;0.60;0.60;;;;;;;;;;5018663;28;20730;-55
2024/02/25 04:23:05;;;;;;;0.73;0.73;;;;;;;;;;5026930;28;20186;-54
2024/02/25 04:25:31;;;;;;;0.60;0.60;;;;;;;;;;5011806;28;20236;-54
2024/02/25 04:27:57;;;;;;;0.60;0.60;;;;;;;;;;5028789;28;20181;-55
2024/02/25 04:30:23;;;;;;;0.77;0.70;;;;;;;;;;5021644;28;20660;-53
2024/02/25 04:32:50;;;;;;;1.27;0.80;;;;;;;;;;5025291;28;20642;-53
2024/02/25 04:35:17;;;;;;;0.70;0.70;;;;;;;;;;5017112;28;20174;-54
2024/02/25 04:37:44;;;;;;;0.50;0.50;;;;;;;;;;5028290;28;20170;-54
2024/02/25 04:40:10;;;;;;;0.83;0.83;;;;;;;;;;5020107;28;20175;-54
2024/02/25 04:42:36;;;;;;;1.50;0.83;;;;;;;;;;5016393;28;20333;-56
2024/02/25 04:45:02;;;;;;;0.57;0.57;;;;;;;;;;5020590;28;20206;-55
2024/02/25 04:47:28;;;;;;;0.80;0.80;;;;;;;;;;5021485;28;20244;-56
2024/02/25 04:49:54;;;;;;;0.70;0.70;;;;;;;;;;5021760;28;20578;-56
2024/02/25 04:52:21;;;;;;;0.70;0.70;;;;;;;;;;5019728;28;20174;-55
2024/02/25 04:54:47;;;;;;;0.90;0.60;;;;;;;;;;5016520;28;20182;-55
2024/02/25 04:57:14;;;;;;;0.60;0.60;;;;;;;;;;5018384;28;20206;-57
2024/02/25 04:59:41;;;;;;;0.60;0.60;;;;;;;;;;5024392;28;20187;-55
2024/02/25 05:02:07;;;;;;;0.67;0.67;;;;;;;;;;5020395;28;20504;-57
2024/02/25 05:04:36;;;;;;;2.03;1.00;;;;;;;;;;5025039;28;20221;-58
2024/02/25 05:07:02;;;;;;;0.50;0.50;;;;;;;;;;5023737;28;20623;-55
2024/02/25 05:09:28;;;;;;;0.83;0.83;;;;;;;;;;5015162;28;20177;-55
2024/02/25 05:11:54;;;;;;;0.87;0.87;;;;;;;;;;5018021;28;20182;-55
2024/02/25 05:14:21;;;;;;;0.67;0.67;;;;;;;;;;5026514;28;20232;-53
2024/02/25 05:16:47;;;;;;;1.00;0.90;;;;;;;;;;5020082;28;20186;-55
2024/02/25 05:19:13;;;;;;;0.80;0.80;;;;;;;;;;5016693;28;20273;-55
2024/02/25 05:21:42;;;;;;;0.90;0.90;;;;;;;;;;5025515;28;20178;-53
2024/02/25 05:24:09;;;;;;;1.10;0.87;;;;;;;;;;5019422;28;20580;-53
2024/02/25 05:26:35;;;;;;;1.53;0.77;;;;;;;;;;5023758;28;20217;-54
2024/02/25 05:29:01;;;;;;;1.70;0.83;;;;;;;;;;5021883;28;20625;-52
2024/02/25 05:31:27;;;;;;;1.00;0.90;;;;;;;;;;5021872;28;20166;-54
2024/02/25 05:33:53;;;;;;;0.57;0.57;;;;;;;;;;5025757;28;20185;-53
2024/02/25 05:36:23;;;;;;;0.60;0.60;;;;;;;;;;5020285;28;20201;-55
2024/02/25 05:38:52;;;;;;;0.70;0.60;;;;;;;;;;5027273;28;20178;-58
2024/02/25 05:41:18;;;;;;;0.90;0.90;;;;;;;;;;5019386;28;20185;-54
2024/02/25 05:43:44;;;;;;;0.80;0.80;;;;;;;;;;5024096;28;20216;-55
2024/02/25 05:46:10;;;;;;;0.80;0.80;;;;;;;;;;5018136;28;20182;-54
2024/02/25 05:48:37;;;;;;;1.00;0.67;;;;;;;;;;5020580;28;20166;-54
2024/02/25 05:51:04;;;;;;;0.60;0.60;;;;;;;;;;5018307;28;20669;-55
2024/02/25 05:53:30;;;;;;;1.10;0.63;;;;;;;;;;5023970;28;20189;-54
2024/02/25 05:55:56;;;;;;;1.50;0.80;;;;;;;;;;5018750;28;20186;-54
2024/02/25 05:58:22;;;;;;;0.60;0.50;;;;;;;;;;5017316;28;20182;-55
2024/02/25 06:00:48;;;;;;;0.50;0.50;;;;;;;;;;5019043;28;20607;-56
2024/02/25 06:03:18;;;;;;;1.37;0.90;;;;;;;;;;5022782;28;20174;-54
2024/02/25 06:05:44;;;;;;;0.93;0.80;;;;;;;;;;5017809;28;20578;-54
2024/02/25 06:08:10;;;;;;;0.70;0.70;;;;;;;;;;5026836;28;20170;-55
2024/02/25 06:10:36;;;;;;;1.20;0.70;;;;;;;;;;5017207;28;20170;-54
2024/02/25 06:13:02;;;;;;;0.77;0.77;;;;;;;;;;5022241;28;20201;-55
2024/02/25 06:15:28;;;;;;;0.80;0.80;;;;;;;;;;5017567;28;20186;-54
2024/02/25 06:17:54;;;;;;;1.43;0.80;;;;;;;;;;5025155;28;20247;-54
2024/02/25 06:20:20;;;;;;;0.70;0.70;;;;;;;;;;5019381;28;20233;-54
2024/02/25 06:22:46;;;;;;;0.90;0.90;;;;;;;;;;5026522;28;20253;-53
2024/02/25 06:25:12;;;;;;;0.77;0.77;;;;;;;;;;5013447;28;20213;-55
2024/02/25 06:27:39;;;;;;;1.17;0.87;;;;;;;;;;5025581;28;20236;-56
2024/02/25 06:30:06;;;;;;;0.70;0.70;;;;;;;;;;5028136;28;20705;-55
2024/02/25 06:32:32;;;;;;;0.83;0.83;;;;;;;;;;5024493;28;20181;-55
2024/02/25 06:34:58;;;;;;;0.73;0.73;;;;;;;;;;5021684;28;20212;-56
2024/02/25 06:37:27;;;;;;;2.23;0.70;;;;;;;;;;5016965;28;20197;-56
2024/02/25 06:39:53;;;;;;;0.73;0.67;;;;;;;;;;5023265;28;20519;-55
2024/02/25 06:42:19;;;;;;;0.83;0.83;;;;;;;;;;5020326;28;20209;-57
2024/02/25 06:44:45;;;;;;;0.70;0.70;;;;;;;;;;5026343;28;20216;-57
2024/02/25 06:47:12;;;;;;;0.50;0.50;;;;;;;;;;5019846;28;20573;-55
2024/02/25 06:49:38;;;;;;;0.70;0.70;;;;;;;;;;5024371;28;20594;-55
2024/02/25 06:52:04;;;;;;;0.53;0.53;;;;;;;;;;5019486;28;20175;-55
2024/02/25 06:54:33;;;;;;;0.53;0.53;;;;;;;;;;5023472;28;20193;-56
2024/02/25 06:56:59;;;;;;;1.60;0.80;;;;;;;;;;5017826;28;20182;-55
2024/02/25 06:59:25;;;;;;;1.27;0.67;;;;;;;;;;5024841;28;20185;-55
2024/02/25 07:01:51;;;;;;;0.80;0.73;;;;;;;;;;5024482;28;20633;-55
2024/02/25 07:04:19;;;;;;;0.60;0.60;;;;;;;;;;5020473;28;20248;-56
2024/02/25 07:06:45;;;;;;;1.00;0.80;;;;;;;;;;5024795;28;20173;-57
2024/02/25 07:09:11;;;;;;;0.80;0.80;;;;;;;;;;5027409;28;20668;-57
2024/02/25 07:11:37;;;;;;;1.17;0.80;;;;;;;;;;5023347;28;20181;-56
2024/02/25 07:14:03;;;;;;;0.80;0.73;;;;;;;;;;5020838;28;20205;-56
2024/02/25 07:16:29;;;;;;;0.73;0.60;;;;;;;;;;5020696;28;20177;-57
2024/02/25 07:18:55;;;;;;;0.67;0.63;;;;;;;;;;5023475;28;20229;-57
2024/02/25 07:21:21;;;;;;;0.73;0.73;;;;;;;;;;5023362;28;20555;-55
2024/02/25 07:23:47;;;;;;;1.03;0.70;;;;;;;;;;5022148;28;20679;-55
2024/02/25 07:26:14;;;;;;;1.13;0.90;;;;;;;;;;5027181;28;20298;-55
2024/02/25 07:28:41;;;;;;;0.70;0.70;;;;;;;;;;5019470;28;20260;-55
2024/02/25 07:31:18;;;;;;;1.63;0.80;;;;;;;;;;5018429;28;20177;-55
2024/02/25 07:33:44;;;;;;;0.83;0.67;;;;;;;;;;5026695;28;20186;-57
2024/02/25 07:36:14;;;;;;;0.60;0.60;;;;;;;;;;5016045;28;20596;-56
2024/02/25 07:38:40;;;;;;;0.97;0.90;;;;;;;;;;5028434;28;20174;-57
2024/02/25 07:41:07;;;;;;;1.00;0.90;;;;;;;;;;5020905;28;20350;-57
2024/02/25 07:43:38;;;;;;;0.97;0.77;;;;;;;;;;5027864;28;20289;-56
2024/02/25 07:46:04;;;;;;;0.70;0.70;;;;;;;;;;5023586;28;20600;-57
2024/02/25 07:48:30;;;;;;;0.73;0.73;;;;;;;;;;5023076;28;20652;-57
2024/02/25 07:50:56;;;;;;;0.77;0.77;;;;;;;;;;5027898;28;20614;-57
2024/02/25 07:53:23;;;;;;;0.63;0.60;;;;;;;;;;5023314;28;20186;-58
2024/02/25 07:55:49;;;;;;;1.47;1.20;;;;;;;;;;5021320;28;20236;-57
2024/02/25 07:58:15;;;;;;;1.30;0.97;;;;;;;;;;5019402;28;20540;-57
2024/02/25 08:00:41;;;;;;;0.90;0.90;;;;;;;;;;5022557;28;20214;-58
2024/02/25 08:03:07;;;;;;;1.03;0.90;;;;;;;;;;5024177;28;20252;-57
2024/02/25 08:05:33;;;;;;;1.27;0.83;;;;;;;;;;5028157;28;20308;-58
2024/02/25 08:07:59;;;;;;;1.60;1.50;;;;;;;;;;5025405;28;20279;-57
2024/02/25 08:10:25;;;;;;;1.40;1.30;;;;;;;;;;5018152;28;20171;-57
2024/02/25 08:12:54;;;;;;;1.50;1.40;;;;;;;;;;5020508;28;20609;-56
2024/02/25 08:15:20;;;;;;;2.00;1.70;;;;;;;;;;5020395;28;20183;-56
2024/02/25 08:17:47;;;;;;;1.37;1.27;;;;;;;;;;5020835;28;20178;-56
2024/02/25 08:20:13;;;;;;;1.50;1.30;;;;;;;;;;5024372;28;20719;-55
2024/02/25 08:22:39;;;;;;;1.20;1.10;;;;;;;;;;5025441;28;20736;-55
2024/02/25 08:25:06;;;;;;;1.37;1.23;;;;;;;;;;5024275;28;20194;-56
2024/02/25 08:27:35;;;;;;;1.10;1.00;;;;;;;;;;5027498;28;20647;-57
2024/02/25 08:30:01;;;;;;;3.57;2.90;;;;;;;;;;5023889;28;20193;-57
2024/02/25 08:32:27;;;;;;;2.37;1.93;;;;;;;;;;5031360;28;20602;-56
2024/02/25 08:34:56;;;;;;;2.00;1.70;;;;;;;;;;5019358;28;20566;-56
2024/02/25 08:37:22;;;;;;;3.87;2.00;;;;;;;;;;5024217;28;20194;-56
2024/02/25 08:39:52;;;;;;;2.43;2.00;;;;;;;;;;5023737;28;20250;-56
2024/02/25 08:42:18;;;;;;;1.30;1.20;;;;;;;;;;5024920;28;20210;-58
2024/02/25 08:44:45;;;;;;;1.43;0.90;;;;;;;;;;5026629;28;20210;-56
2024/02/25 08:47:11;;;;;;;1.30;1.10;;;;;;;;;;5025366;28;20289;-57
2024/02/25 08:49:37;;;;;;;0.90;0.90;;;;;;;;;;5020068;28;20242;-57
2024/02/25 08:52:04;;;;;;;1.53;0.90;;;;;;;;;;5026429;28;20693;-56
2024/02/25 08:54:30;;;;;;;2.33;0.97;;;;;;;;;;5024036;28;20660;-56
2024/02/25 08:56:57;;;;;;;0.60;0.60;;;;;;;;;;5025657;28;20206;-56
2024/02/25 08:59:23;;;;;;;0.50;0.50;;;;;;;;;;5018237;28;20199;-58
2024/02/25 09:01:49;;;;;;;0.67;0.67;;;;;;;;;;5018652;28;20189;-57
2024/02/25 09:04:16;;;;;;;0.60;0.60;;;;;;;;;;5016706;28;20210;-57
2024/02/25 09:06:42;;;;;;;0.50;0.50;;;;;;;;;;5020882;28;20184;-58
2024/02/25 09:09:09;;;;;;;0.77;0.77;;;;;;;;;;5019932;28;20269;-57
2024/02/25 09:11:35;;;;;;;0.60;0.60;;;;;;;;;;5017304;28;20256;-57
2024/02/25 09:14:01;;;;;;;0.80;0.80;;;;;;;;;;5024238;28;20575;-57
2024/02/25 09:16:28;;;;;;;1.40;0.83;;;;;;;;;;5023487;28;20170;-57
2024/02/25 09:18:54;;;;;;;1.25;0.70;;;;;;;;;;5025502;28;20231;-57
2024/02/25 09:21:20;;;;;;;0.70;0.60;;;;;;;;;;5026667;28;20247;-58
2024/02/25 09:23:46;;;;;;;0.70;0.70;;;;;;;;;;5026386;28;20214;-57
2024/02/25 09:26:13;;;;;;;0.60;0.60;;;;;;;;;;5022948;28;20189;-57
2024/02/25 09:28:39;;;;;;;0.60;0.60;;;;;;;;;;5022274;28;20170;-57
2024/02/25 09:31:05;;;;;;;0.80;0.80;;;;;;;;;;5025295;28;20277;-56
2024/02/25 09:33:34;;;;;;;0.70;0.70;;;;;;;;;;5023676;28;20727;-57
2024/02/25 09:36:00;;;;;;;0.67;0.67;;;;;;;;;;5019980;28;20215;-57
2024/02/25 09:38:29;;;;;;;2.57;0.77;;;;;;;;;;5027393;28;20182;-57
2024/02/25 09:41:01;;;;;;;1.80;0.90;;;;;;;;;;5024146;28;20666;-57
2024/02/25 09:43:27;;;;;;;0.90;0.90;;;;;;;;;;5026662;28;20205;-57
2024/02/25 09:45:55;;;;;;;0.70;0.70;;;;;;;;;;5025439;28;20197;-57
2024/02/25 09:48:21;;;;;;;3.23;0.90;;;;;;;;;;5025984;28;20267;-57
2024/02/25 09:50:48;;;;;;;1.23;1.00;;;;;;;;;;5024219;28;20649;-58
2024/02/25 09:53:15;;;;;;;18.02;1.73;;;;;;;;;;5022176;28;20879;-57
2024/02/25 09:55:41;;;;;;;3.93;1.20;;;;;;;;;;5026183;28;20923;-57
2024/02/25 09:58:07;;;;;;;50.33;7.33;;;;;;;;;;5022910;28;20259;-56
2024/02/25 10:00:33;;;;;;;14.90;2.80;;;;;;;;;;5025361;28;20189;-55
2024/02/25 10:03:00;;;;;;;37.67;3.37;;;;;;;;;;5027485;28;20236;-55
2024/02/25 10:05:26;;;;;;;51.67;4.53;;;;;;;;;;5027117;28;20569;-55
2024/02/25 10:08:03;;;;;;;9.33;1.90;;;;;;;;;;5019541;28;20182;-57
2024/02/25 10:10:31;;;;;;;144.33;12.83;;;;;;;;;;5022900;28;20284;-57
2024/02/25 10:12:57;;;;;;;44.00;5.93;;;;;;;;;;5025904;28;20185;-58
2024/02/25 10:15:23;;;;;;;29.60;3.80;;;;;;;;;;5024886;28;20691;-57
2024/02/25 10:17:49;;;;;;;11.57;1.60;;;;;;;;;;5027068;28;20265;-57
2024/02/25 10:20:15;;;;;;;3.07;1.10;;;;;;;;;;5026764;28;20236;-58
2024/02/25 10:22:41;;;;;;;2.17;0.80;;;;;;;;;;5027426;28;20611;-57
2024/02/25 10:25:07;;;;;;;1.50;0.80;;;;;;;;;;5025211;28;20212;-58
2024/02/25 10:27:33;;;;;;;1.67;1.40;;;;;;;;;;5027109;28;20205;-57
2024/02/25 10:30:01;;;;;;;1.87;0.60;;;;;;;;;;5025863;28;20212;-57
2024/02/25 10:32:28;;;;;;;1.97;0.70;;;;;;;;;;5019717;28;20185;-57
2024/02/25 10:34:55;;;;;;;1.33;0.80;;;;;;;;;;5025138;28;20181;-57
2024/02/25 10:37:22;;;;;;;1.47;0.80;;;;;;;;;;5026865;28;20587;-57
2024/02/25 10:39:51;;;;;;;3.23;0.97;;;;;;;;;;5022946;28;20189;-55
2024/02/25 10:42:17;;;;;;;3.20;0.90;;;;;;;;;;5026149;28;20221;-55
2024/02/25 10:44:44;;;;;;;1.23;0.80;;;;;;;;;;5022445;28;20199;-56
2024/02/25 10:47:15;;;;;;;0.77;0.73;;;;;;;;;;5023392;28;20193;-56
2024/02/25 10:49:42;;;;;;;0.60;0.60;;;;;;;;;;5017483;28;20182;-55
2024/02/25 10:52:08;;;;;;;2.53;0.80;;;;;;;;;;5021813;28;20194;-55
2024/02/25 10:54:37;;;;;;;5.77;0.87;;;;;;;;;;5021193;28;20190;-55
2024/02/25 10:57:03;;;;;;;1.03;0.83;;;;;;;;;;5018962;28;20178;-55
2024/02/25 10:59:32;;;;;;;0.60;0.60;;;;;;;;;;5021239;28;20293;-59
2024/02/25 11:02:00;;;;;;;3.23;1.00;;;;;;;;;;5022845;28;20209;-59
2024/02/25 11:04:27;;;;;;;0.90;0.90;;;;;;;;;;5025222;28;20202;-58
2024/02/25 11:06:55;;;;;;;4.20;1.03;;;;;;;;;;5018070;28;20205;-58
2024/02/25 11:09:22;;;;;;;0.93;0.80;;;;;;;;;;5023296;28;20239;-57
2024/02/25 11:11:48;;;;;;;1.87;0.97;;;;;;;;;;5024529;28;20186;-57
2024/02/25 11:14:18;;;;;;;1.90;1.10;;;;;;;;;;5025050;28;20194;-58
2024/02/25 11:16:48;;;;;;;0.83;0.83;;;;;;;;;;5015791;28;20208;-58
2024/02/25 11:19:21;;;;;;;1.17;1.07;;;;;;;;;;5016079;28;20232;-58
2024/02/25 11:21:54;;;;;;;0.93;0.80;;;;;;;;;;5018610;28;20201;-57
2024/02/25 11:24:39;;;;;;;5.40;1.20;;;;;;;;;;5025043;28;20673;-57
2024/02/25 11:27:05;;;;;;;1.83;1.10;;;;;;;;;;5026679;28;20182;-58
2024/02/25 11:29:31;;;;;;;1.23;0.90;;;;;;;;;;5018511;28;20186;-56
2024/02/25 11:31:59;;;;;;;1.03;0.83;;;;;;;;;;5020659;28;20214;-56
2024/02/25 11:34:35;;;;;;;1.97;1.00;;;;;;;;;;5019061;28;20178;-56
2024/02/25 11:37:04;;;;;;;1.37;1.07;;;;;;;;;;5020380;28;20184;-56
2024/02/25 11:39:32;;;;;;;4.20;1.60;;;;;;;;;;5022400;28;20206;-56
2024/02/25 11:42:02;;;;;;;0.90;0.90;;;;;;;;;;5026315;28;20198;-57
2024/02/25 11:44:29;;;;;;;0.90;0.90;;;;;;;;;;5026143;28;20205;-56
2024/02/25 11:46:59;;;;;;;3.30;0.97;;;;;;;;;;5025013;28;20292;-56
2024/02/25 11:49:25;;;;;;;1.60;1.30;;;;;;;;;;5019142;28;20736;-57
2024/02/25 11:51:52;;;;;;;2.43;1.23;;;;;;;;;;5020292;28;20182;-57
2024/02/25 11:54:19;;;;;;;3.10;1.60;;;;;;;;;;5019184;28;20221;-56
2024/02/25 11:56:45;;;;;;;2.17;1.63;;;;;;;;;;5017646;28;20267;-56
2024/02/25 11:59:12;;;;;;;3.83;1.43;;;;;;;;;;5019985;28;20276;-56
2024/02/25 12:01:38;;;;;;;1.30;0.90;;;;;;;;;;5021602;28;20190;-57
2024/02/25 12:04:04;;;;;;;2.07;1.07;;;;;;;;;;5025446;28;20645;-56
2024/02/25 12:06:35;;;;;;;3.07;1.20;;;;;;;;;;5026329;28;20268;-56
2024/02/25 12:09:05;;;;;;;1.90;1.03;;;;;;;;;;5027689;28;20181;-55
2024/02/25 12:11:31;;;;;;;1.60;1.00;;;;;;;;;;5027251;28;20664;-56
2024/02/25 12:14:04;;;;;;;2.67;1.10;;;;;;;;;;5019525;28;20194;-57
2024/02/25 12:16:30;;;;;;;1.57;1.00;;;;;;;;;;5028317;28;20185;-56
2024/02/25 12:18:57;;;;;;;1.13;0.90;;;;;;;;;;5027820;28;20591;-57
2024/02/25 12:21:23;;;;;;;2.13;1.10;;;;;;;;;;5026809;28;20294;-57
2024/02/25 12:23:50;;;;;;;1.10;0.80;;;;;;;;;;5027777;28;20182;-58
2024/02/25 12:26:16;;;;;;;2.10;1.00;;;;;;;;;;5026264;28;20709;-56
2024/02/25 12:28:42;;;;;;;2.70;1.23;;;;;;;;;;5027353;28;20268;-56
2024/02/25 12:31:09;;;;;;;1.57;1.03;;;;;;;;;;5026720;28;20224;-55
2024/02/25 12:33:35;;;;;;;1.40;0.90;;;;;;;;;;5026235;28;20178;-56
2024/02/25 12:36:04;;;;;;;2.50;1.10;;;;;;;;;;5023609;28;20231;-55
2024/02/25 12:38:31;;;;;;;3.03;1.10;;;;;;;;;;5026078;28;20197;-55
2024/02/25 12:40:57;;;;;;;1.10;1.00;;;;;;;;;;5023285;28;20264;-56
2024/02/25 12:43:25;;;;;;;2.90;1.00;;;;;;;;;;5020592;28;20209;-53
2024/02/25 12:45:51;;;;;;;3.13;0.87;;;;;;;;;;5022296;28;20198;-55
2024/02/25 12:48:17;;;;;;;1.63;1.50;;;;;;;;;;5021098;28;20218;-56
2024/02/25 12:50:43;;;;;;;1.20;1.00;;;;;;;;;;5028595;28;20220;-54
2024/02/25 12:53:09;;;;;;;1.30;1.07;;;;;;;;;;5021088;28;20208;-54
2024/02/25 12:55:36;;;;;;;1.43;1.13;;;;;;;;;;5012306;28;20665;-60
2024/02/25 12:58:02;;;;;;;1.33;1.20;;;;;;;;;;5025806;28;20189;-60
2024/02/25 13:00:28;;;;;;;1.77;1.20;;;;;;;;;;5026655;28;20649;-60
2024/02/25 13:02:54;;;;;;;2.67;0.90;;;;;;;;;;5025244;28;20189;-57
2024/02/25 13:05:20;;;;;;;3.13;1.00;;;;;;;;;;5021680;28;20249;-58
2024/02/25 13:07:46;;;;;;;2.23;1.20;;;;;;;;;;5021076;28;20587;-59
2024/02/25 13:10:12;;;;;;;2.57;1.10;;;;;;;;;;5025321;28;20211;-58
2024/02/25 13:12:39;;;;;;;2.07;0.90;;;;;;;;;;5024400;28;20703;-59
2024/02/25 13:15:05;;;;;;;2.27;0.93;;;;;;;;;;5022980;28;20227;-51
2024/02/25 13:17:34;;;;;;;1.43;1.00;;;;;;;;;;5027406;28;20201;-52
2024/02/25 13:20:00;;;;;;;2.20;1.10;;;;;;;;;;5025557;28;20249;-54
2024/02/25 13:22:27;;;;;;;4.37;2.50;;;;;;;;;;5024441;28;20206;-52
2024/02/25 13:24:53;;;;;;;1.50;1.00;;;;;;;;;;5026088;28;20766;-52
2024/02/25 13:27:20;;;;;;;2.23;1.10;;;;;;;;;;5028922;28;20215;-53
2024/02/25 13:29:49;;;;;;;3.37;1.27;;;;;;;;;;5025263;28;21105;-53
2024/02/25 13:32:16;;;;;;;2.60;1.30;;;;;;;;;;5027959;28;20252;-53
2024/02/25 13:34:42;;;;;;;1.37;1.00;;;;;;;;;;5027888;28;20205;-52
2024/02/25 13:37:08;;;;;;;1.03;0.93;;;;;;;;;;5026796;28;20193;-54
2024/02/25 13:39:34;;;;;;;0.90;0.90;;;;;;;;;;5021409;28;20217;-53
2024/02/25 13:42:00;;;;;;;1.83;0.90;;;;;;;;;;5022367;28;20189;-54
2024/02/25 13:44:26;;;;;;;1.67;1.00;;;;;;;;;;5023106;28;20209;-53
2024/02/25 13:46:52;;;;;;;2.20;1.20;;;;;;;;;;5023541;28;20296;-51
2024/02/25 13:49:18;;;;;;;0.97;0.97;;;;;;;;;;5022183;28;20182;-52
2024/02/25 13:51:44;;;;;;;2.40;1.07;;;;;;;;;;5026684;28;20173;-53
2024/02/25 13:54:11;;;;;;;1.23;0.97;;;;;;;;;;5027410;28;20263;-56
2024/02/25 13:56:38;;;;;;;1.90;0.87;;;;;;;;;;5024636;28;20186;-56
2024/02/25 13:59:04;;;;;;;0.80;0.80;;;;;;;;;;5026602;28;20736;-56
2024/02/25 14:01:31;;;;;;;1.80;0.93;;;;;;;;;;5026827;28;20182;-56
2024/02/25 14:03:57;;;;;;;2.40;0.80;;;;;;;;;;5026231;28;20232;-60
2024/02/25 14:06:23;;;;;;;2.03;1.10;;;;;;;;;;5027119;28;20273;-59
2024/02/25 14:08:49;;;;;;;1.10;1.00;;;;;;;;;;5026370;28;20181;-59
2024/02/25 14:11:15;;;;;;;2.60;1.30;;;;;;;;;;5022678;28;20186;-58
2024/02/25 14:13:41;;;;;;;1.30;0.93;;;;;;;;;;5026941;28;20645;-59
2024/02/25 14:16:07;;;;;;;1.43;0.90;;;;;;;;;;5024596;28;20186;-59
2024/02/25 14:18:33;;;;;;;1.30;0.90;;;;;;;;;;5025942;28;21060;-58
2024/02/25 14:20:59;;;;;;;1.87;1.00;;;;;;;;;;5026397;28;20272;-59
2024/02/25 14:23:26;;;;;;;1.17;0.97;;;;;;;;;;5024987;28;20230;-59
2024/02/25 14:25:52;;;;;;;1.23;0.90;;;;;;;;;;5024685;28;20668;-56
2024/02/25 14:28:18;;;;;;;0.77;0.73;;;;;;;;;;5023303;28;20182;-60
2024/02/25 14:30:46;;;;;;;0.97;0.70;;;;;;;;;;5027300;28;20259;-60
2024/02/25 14:33:12;;;;;;;0.97;0.90;;;;;;;;;;5018120;28;20265;-60
2024/02/25 14:35:38;;;;;;;0.83;0.83;;;;;;;;;;5025005;28;20224;-60
2024/02/25 14:38:04;;;;;;;0.70;0.70;;;;;;;;;;5026257;28;20221;-58
2024/02/25 14:40:30;;;;;;;0.60;0.60;;;;;;;;;;5024544;28;20186;-59